sensor_id;sensor_type;location;lat;lon;timestamp;pressure;altitude;pressure_sealevel;temperature;humidity
61086;BME280;46967;48.876;2.136;2023-07-29T00:02:16;100705.16;;;52.94;12.74
61086;BME280;46967;48.876;2.136;2023-07-29T00:04:41;100704.59;;;52.79;12.42
61086;BME280;46967;48.876;2.136;2023-07-29T00:07:07;100713.56;;;52.76;12.55
61086;BME280;46967;48.876;2.136;2023-07-29T00:09:32;100714.97;;;52.52;12.74
61086;BME280;46967;48.876;2.136;2023-07-29T00:11:57;100712.78;;;52.11;12.89
61086;BME280;46967;48.876;2.136;2023-07-29T00:14:23;100707.22;;;52.28;12.63
61086;BME280;46967;48.876;2.136;2023-07-29T00:16:48;100698.63;;;52.12;12.89
61086;BME280;46967;48.876;2.136;2023-07-29T00:19:14;100695.72;;;52.09;12.38
61086;BME280;46967;48.876;2.136;2023-07-29T00:21:39;100692.66;;;51.58;12.92
61086;BME280;46967;48.876;2.136;2023-07-29T00:24:06;100692.50;;;51.28;13.20
61086;BME280;46967;48.876;2.136;2023-07-29T00:26:31;100685.53;;;51.39;13.32
61086;BME280;46967;48.876;2.136;2023-07-29T00:28:57;100689.06;;;50.65;12.96
61086;BME280;46967;48.876;2.136;2023-07-29T00:31:22;100696.13;;;50.39;12.99
61086;BME280;46967;48.876;2.136;2023-07-29T00:33:48;100704.41;;;50.39;13.02
61086;BME280;46967;48.876;2.136;2023-07-29T00:36:13;100714.56;;;50.30;13.23
61086;BME280;46967;48.876;2.136;2023-07-29T00:38:39;100702.28;;;50.45;13.35
61086;BME280;46967;48.876;2.136;2023-07-29T00:41:05;100707.06;;;49.99;13.47
61086;BME280;46967;48.876;2.136;2023-07-29T00:43:30;100702.47;;;49.95;13.79
61086;BME280;46967;48.876;2.136;2023-07-29T00:45:56;100703.25;;;49.87;13.72
61086;BME280;46967;48.876;2.136;2023-07-29T00:48:23;100712.13;;;50.06;13.11
61086;BME280;46967;48.876;2.136;2023-07-29T00:50:49;100708.88;;;49.45;13.67
61086;BME280;46967;48.876;2.136;2023-07-29T00:53:14;100707.53;;;49.56;13.65
61086;BME280;46967;48.876;2.136;2023-07-29T00:55:40;100711.50;;;49.87;13.68
61086;BME280;46967;48.876;2.136;2023-07-29T00:58:07;100712.44;;;49.45;13.85
61086;BME280;46967;48.876;2.136;2023-07-29T01:00:32;100716.25;;;49.72;13.22
61086;BME280;46967;48.876;2.136;2023-07-29T01:02:57;100730.03;;;48.94;14.24
61086;BME280;46967;48.876;2.136;2023-07-29T01:05:27;100725.22;;;48.72;14.26
61086;BME280;46967;48.876;2.136;2023-07-29T01:08:00;100717.66;;;48.17;14.52
61086;BME280;46967;48.876;2.136;2023-07-29T01:13:44;100689.63;;;49.31;13.57
61086;BME280;46967;48.876;2.136;2023-07-29T01:16:52;100696.50;;;49.42;13.71
61086;BME280;46967;48.876;2.136;2023-07-29T01:19:26;100698.91;;;48.66;13.58
61086;BME280;46967;48.876;2.136;2023-07-29T01:21:56;100712.91;;;48.97;13.74
61086;BME280;46967;48.876;2.136;2023-07-29T01:24:22;100696.34;;;48.41;13.70
61086;BME280;46967;48.876;2.136;2023-07-29T01:26:47;100707.28;;;48.60;13.85
61086;BME280;46967;48.876;2.136;2023-07-29T01:29:13;100709.31;;;48.22;13.94
61086;BME280;46967;48.876;2.136;2023-07-29T01:31:43;100701.25;;;47.93;14.13
61086;BME280;46967;48.876;2.136;2023-07-29T01:36:39;100679.25;;;48.45;13.69
61086;BME280;46967;48.876;2.136;2023-07-29T01:39:07;100692.25;;;47.73;14.42
61086;BME280;46967;48.876;2.136;2023-07-29T01:41:34;100696.50;;;48.31;14.06
61086;BME280;46967;48.876;2.136;2023-07-29T01:44:00;100692.53;;;47.52;14.63
61086;BME280;46967;48.876;2.136;2023-07-29T01:46:26;100697.78;;;47.68;14.30
61086;BME280;46967;48.876;2.136;2023-07-29T01:48:52;100687.75;;;47.58;14.70
61086;BME280;46967;48.876;2.136;2023-07-29T01:51:17;100683.31;;;47.81;14.10
61086;BME280;46967;48.876;2.136;2023-07-29T01:53:42;100677.84;;;48.28;14.02
61086;BME280;46967;48.876;2.136;2023-07-29T01:56:08;100689.31;;;47.83;14.72
61086;BME280;46967;48.876;2.136;2023-07-29T01:58:33;100699.06;;;47.13;14.81
61086;BME280;46967;48.876;2.136;2023-07-29T02:00:58;100705.25;;;47.24;14.89
61086;BME280;46967;48.876;2.136;2023-07-29T02:03:24;100721.22;;;48.17;14.47
61086;BME280;46967;48.876;2.136;2023-07-29T02:05:49;100721.16;;;48.03;14.04
61086;BME280;46967;48.876;2.136;2023-07-29T02:08:15;100710.47;;;48.02;14.23
61086;BME280;46967;48.876;2.136;2023-07-29T02:10:40;100684.03;;;48.53;13.83
61086;BME280;46967;48.876;2.136;2023-07-29T02:13:06;100688.00;;;48.14;14.20
61086;BME280;46967;48.876;2.136;2023-07-29T02:15:31;100697.16;;;48.42;13.57
61086;BME280;46967;48.876;2.136;2023-07-29T02:17:56;100676.63;;;48.20;14.04
61086;BME280;46967;48.876;2.136;2023-07-29T02:20:24;100682.28;;;48.71;13.65
61086;BME280;46967;48.876;2.136;2023-07-29T02:22:49;100691.59;;;48.14;14.22
61086;BME280;46967;48.876;2.136;2023-07-29T02:25:14;100689.00;;;48.04;13.74
61086;BME280;46967;48.876;2.136;2023-07-29T02:27:40;100693.53;;;47.95;14.25
61086;BME280;46967;48.876;2.136;2023-07-29T02:30:06;100699.13;;;47.70;14.22
61086;BME280;46967;48.876;2.136;2023-07-29T02:32:31;100707.16;;;47.86;14.07
61086;BME280;46967;48.876;2.136;2023-07-29T02:34:57;100700.69;;;48.29;13.76
61086;BME280;46967;48.876;2.136;2023-07-29T02:37:22;100700.16;;;46.00;15.39
61086;BME280;46967;48.876;2.136;2023-07-29T02:39:47;100694.00;;;47.64;14.47
61086;BME280;46967;48.876;2.136;2023-07-29T02:42:12;100694.75;;;46.83;14.87
61086;BME280;46967;48.876;2.136;2023-07-29T02:44:39;100694.25;;;47.67;14.74
61086;BME280;46967;48.876;2.136;2023-07-29T02:47:05;100701.03;;;48.08;14.12
61086;BME280;46967;48.876;2.136;2023-07-29T02:49:30;100699.66;;;47.72;14.15
61086;BME280;46967;48.876;2.136;2023-07-29T02:51:55;100702.88;;;46.93;14.94
61086;BME280;46967;48.876;2.136;2023-07-29T02:54:21;100702.16;;;47.88;14.20
61086;BME280;46967;48.876;2.136;2023-07-29T02:56:46;100703.56;;;48.04;13.82
61086;BME280;46967;48.876;2.136;2023-07-29T02:59:12;100710.44;;;48.21;13.85
61086;BME280;46967;48.876;2.136;2023-07-29T03:01:37;100708.66;;;47.16;14.51
61086;BME280;46967;48.876;2.136;2023-07-29T03:04:02;100708.78;;;47.25;14.47
61086;BME280;46967;48.876;2.136;2023-07-29T03:06:28;100717.00;;;46.23;15.60
61086;BME280;46967;48.876;2.136;2023-07-29T03:08:53;100720.06;;;47.23;14.60
61086;BME280;46967;48.876;2.136;2023-07-29T03:11:18;100728.00;;;46.47;15.49
61086;BME280;46967;48.876;2.136;2023-07-29T03:13:44;100719.88;;;46.90;14.94
61086;BME280;46967;48.876;2.136;2023-07-29T03:18:39;100723.22;;;46.34;15.88
61086;BME280;46967;48.876;2.136;2023-07-29T03:21:04;100724.25;;;46.03;16.02
61086;BME280;46967;48.876;2.136;2023-07-29T03:23:31;100724.81;;;46.93;15.04
61086;BME280;46967;48.876;2.136;2023-07-29T03:25:58;100730.09;;;45.31;16.30
61086;BME280;46967;48.876;2.136;2023-07-29T03:28:28;100725.50;;;46.56;15.69
61086;BME280;46967;48.876;2.136;2023-07-29T03:30:55;100727.66;;;47.56;14.21
61086;BME280;46967;48.876;2.136;2023-07-29T03:33:20;100734.19;;;47.79;14.03
61086;BME280;46967;48.876;2.136;2023-07-29T03:35:46;100742.84;;;46.75;14.90
61086;BME280;46967;48.876;2.136;2023-07-29T03:38:11;100729.16;;;46.99;14.85
61086;BME280;46967;48.876;2.136;2023-07-29T03:40:40;100727.22;;;47.67;14.49
61086;BME280;46967;48.876;2.136;2023-07-29T03:43:06;100731.41;;;47.41;14.76
61086;BME280;46967;48.876;2.136;2023-07-29T03:45:33;100730.22;;;47.47;14.31
61086;BME280;46967;48.876;2.136;2023-07-29T03:47:58;100734.84;;;46.50;15.51
61086;BME280;46967;48.876;2.136;2023-07-29T03:50:24;100731.06;;;46.75;15.06
61086;BME280;46967;48.876;2.136;2023-07-29T03:52:49;100740.06;;;46.51;15.33
61086;BME280;46967;48.876;2.136;2023-07-29T03:55:15;100739.09;;;46.95;15.17
61086;BME280;46967;48.876;2.136;2023-07-29T03:57:40;100733.88;;;47.61;14.51
61086;BME280;46967;48.876;2.136;2023-07-29T04:00:06;100726.72;;;47.41;14.67
61086;BME280;46967;48.876;2.136;2023-07-29T04:02:32;100726.66;;;47.46;14.46
61086;BME280;46967;48.876;2.136;2023-07-29T04:04:57;100730.53;;;47.45;14.69
61086;BME280;46967;48.876;2.136;2023-07-29T04:07:22;100731.53;;;47.06;14.78
61086;BME280;46967;48.876;2.136;2023-07-29T04:09:48;100729.53;;;45.95;15.89
61086;BME280;46967;48.876;2.136;2023-07-29T04:12:14;100728.22;;;47.33;14.65
61086;BME280;46967;48.876;2.136;2023-07-29T04:14:40;100733.13;;;47.37;14.55
61086;BME280;46967;48.876;2.136;2023-07-29T04:17:05;100730.94;;;47.09;14.77
61086;BME280;46967;48.876;2.136;2023-07-29T04:19:30;100726.66;;;47.46;14.46
61086;BME280;46967;48.876;2.136;2023-07-29T04:21:55;100741.44;;;47.50;14.88
61086;BME280;46967;48.876;2.136;2023-07-29T04:24:21;100741.38;;;47.56;14.64
61086;BME280;46967;48.876;2.136;2023-07-29T04:26:48;100757.91;;;46.09;15.35
61086;BME280;46967;48.876;2.136;2023-07-29T04:29:14;100749.00;;;47.15;14.93
61086;BME280;46967;48.876;2.136;2023-07-29T04:31:39;100756.34;;;47.20;14.44
61086;BME280;46967;48.876;2.136;2023-07-29T04:34:04;100749.72;;;47.02;14.65
61086;BME280;46967;48.876;2.136;2023-07-29T04:36:30;100748.09;;;47.44;14.41
61086;BME280;46967;48.876;2.136;2023-07-29T04:38:55;100751.09;;;47.24;14.68
61086;BME280;46967;48.876;2.136;2023-07-29T04:41:21;100743.09;;;47.27;14.59
61086;BME280;46967;48.876;2.136;2023-07-29T04:43:46;100748.13;;;46.96;14.36
61086;BME280;46967;48.876;2.136;2023-07-29T04:46:12;100747.50;;;47.71;14.35
61086;BME280;46967;48.876;2.136;2023-07-29T04:48:37;100737.94;;;47.45;14.45
61086;BME280;46967;48.876;2.136;2023-07-29T04:51:02;100741.63;;;47.78;13.91
61086;BME280;46967;48.876;2.136;2023-07-29T04:53:28;100745.84;;;47.70;14.24
61086;BME280;46967;48.876;2.136;2023-07-29T04:55:53;100745.97;;;46.93;14.84
61086;BME280;46967;48.876;2.136;2023-07-29T04:58:18;100740.75;;;47.59;13.90
61086;BME280;46967;48.876;2.136;2023-07-29T05:00:46;100753.59;;;47.44;14.13
61086;BME280;46967;48.876;2.136;2023-07-29T05:03:12;100748.94;;;47.45;13.96
61086;BME280;46967;48.876;2.136;2023-07-29T05:05:37;100754.56;;;47.34;14.31
61086;BME280;46967;48.876;2.136;2023-07-29T05:08:02;100751.28;;;47.08;14.60
61086;BME280;46967;48.876;2.136;2023-07-29T05:10:28;100749.94;;;47.30;14.60
61086;BME280;46967;48.876;2.136;2023-07-29T05:12:53;100758.16;;;47.54;14.28
61086;BME280;46967;48.876;2.136;2023-07-29T05:15:18;100756.88;;;47.46;14.48
61086;BME280;46967;48.876;2.136;2023-07-29T05:17:44;100759.50;;;47.76;13.89
61086;BME280;46967;48.876;2.136;2023-07-29T05:20:09;100759.09;;;47.20;14.48
61086;BME280;46967;48.876;2.136;2023-07-29T05:22:34;100762.94;;;47.67;13.93
61086;BME280;46967;48.876;2.136;2023-07-29T05:25:00;100764.28;;;47.70;14.23
61086;BME280;46967;48.876;2.136;2023-07-29T05:27:25;100762.19;;;46.31;15.48
61086;BME280;46967;48.876;2.136;2023-07-29T05:29:50;100765.84;;;47.09;14.34
61086;BME280;46967;48.876;2.136;2023-07-29T05:32:16;100768.47;;;46.66;14.71
61086;BME280;46967;48.876;2.136;2023-07-29T05:34:41;100773.06;;;46.99;14.65
61086;BME280;46967;48.876;2.136;2023-07-29T05:37:07;100770.72;;;46.58;15.18
61086;BME280;46967;48.876;2.136;2023-07-29T05:39:32;100769.50;;;46.40;15.45
61086;BME280;46967;48.876;2.136;2023-07-29T05:41:58;100773.88;;;46.02;15.62
61086;BME280;46967;48.876;2.136;2023-07-29T05:44:23;100768.41;;;47.24;14.60
61086;BME280;46967;48.876;2.136;2023-07-29T05:46:49;100770.84;;;46.43;15.01
61086;BME280;46967;48.876;2.136;2023-07-29T05:49:14;100761.34;;;46.64;15.15
61086;BME280;46967;48.876;2.136;2023-07-29T05:51:40;100766.38;;;45.68;15.44
61086;BME280;46967;48.876;2.136;2023-07-29T05:54:05;100760.19;;;47.00;14.85
61086;BME280;46967;48.876;2.136;2023-07-29T05:56:30;100771.72;;;46.68;14.97
61086;BME280;46967;48.876;2.136;2023-07-29T05:58:56;100774.72;;;47.68;14.11
61086;BME280;46967;48.876;2.136;2023-07-29T06:01:22;100774.00;;;47.81;14.09
61086;BME280;46967;48.876;2.136;2023-07-29T06:03:47;100771.63;;;46.78;14.67
61086;BME280;46967;48.876;2.136;2023-07-29T06:06:13;100756.28;;;47.30;14.19
61086;BME280;46967;48.876;2.136;2023-07-29T06:08:38;100762.03;;;48.10;14.03
61086;BME280;46967;48.876;2.136;2023-07-29T06:11:03;100781.44;;;47.38;14.24
61086;BME280;46967;48.876;2.136;2023-07-29T06:13:31;100788.44;;;46.37;15.02
61086;BME280;46967;48.876;2.136;2023-07-29T06:15:57;100794.25;;;46.64;15.10
61086;BME280;46967;48.876;2.136;2023-07-29T06:18:22;100795.94;;;44.80;16.27
61086;BME280;46967;48.876;2.136;2023-07-29T06:20:48;100793.78;;;46.52;14.78
61086;BME280;46967;48.876;2.136;2023-07-29T06:23:13;100809.50;;;45.31;15.87
61086;BME280;46967;48.876;2.136;2023-07-29T06:25:38;100800.53;;;46.70;14.66
61086;BME280;46967;48.876;2.136;2023-07-29T06:28:04;100806.91;;;46.90;14.82
61086;BME280;46967;48.876;2.136;2023-07-29T06:30:30;100802.84;;;46.13;15.08
61086;BME280;46967;48.876;2.136;2023-07-29T06:32:55;100807.09;;;45.90;15.62
61086;BME280;46967;48.876;2.136;2023-07-29T06:35:21;100807.06;;;47.28;14.38
61086;BME280;46967;48.876;2.136;2023-07-29T06:37:46;100802.75;;;47.46;14.47
61086;BME280;46967;48.876;2.136;2023-07-29T06:40:11;100811.19;;;47.25;14.50
61086;BME280;46967;48.876;2.136;2023-07-29T06:42:37;100803.31;;;47.43;14.09
61086;BME280;46967;48.876;2.136;2023-07-29T06:45:03;100797.56;;;46.61;14.76
61086;BME280;46967;48.876;2.136;2023-07-29T06:47:29;100800.34;;;46.86;14.67
61086;BME280;46967;48.876;2.136;2023-07-29T06:49:54;100801.47;;;48.00;13.62
61086;BME280;46967;48.876;2.136;2023-07-29T06:52:20;100800.59;;;48.57;13.53
61086;BME280;46967;48.876;2.136;2023-07-29T06:54:45;100816.03;;;48.01;13.51
61086;BME280;46967;48.876;2.136;2023-07-29T06:57:10;100806.28;;;47.22;14.68
61086;BME280;46967;48.876;2.136;2023-07-29T06:59:36;100807.91;;;47.52;14.42
61086;BME280;46967;48.876;2.136;2023-07-29T07:02:01;100819.63;;;46.01;15.46
61086;BME280;46967;48.876;2.136;2023-07-29T07:04:27;100819.19;;;48.13;13.68
61086;BME280;46967;48.876;2.136;2023-07-29T07:06:52;100824.13;;;47.49;14.43
61086;BME280;46967;48.876;2.136;2023-07-29T07:09:17;100821.34;;;46.71;15.10
61086;BME280;46967;48.876;2.136;2023-07-29T07:11:43;100829.84;;;47.04;14.59
61086;BME280;46967;48.876;2.136;2023-07-29T07:14:08;100831.47;;;47.78;14.33
61086;BME280;46967;48.876;2.136;2023-07-29T07:16:33;100840.91;;;45.65;15.44
61086;BME280;46967;48.876;2.136;2023-07-29T07:19:01;100847.47;;;46.98;14.39
61086;BME280;46967;48.876;2.136;2023-07-29T07:21:27;100838.47;;;46.87;14.36
61086;BME280;46967;48.876;2.136;2023-07-29T07:23:52;100839.41;;;48.55;13.54
61086;BME280;46967;48.876;2.136;2023-07-29T07:26:17;100846.94;;;47.49;14.20
61086;BME280;46967;48.876;2.136;2023-07-29T07:28:43;100842.69;;;48.57;13.53
61086;BME280;46967;48.876;2.136;2023-07-29T07:31:08;100849.66;;;49.29;13.31
61086;BME280;46967;48.876;2.136;2023-07-29T07:33:33;100846.63;;;47.75;14.10
61086;BME280;46967;48.876;2.136;2023-07-29T07:35:59;100844.88;;;48.22;14.04
61086;BME280;46967;48.876;2.136;2023-07-29T07:38:24;100850.97;;;47.33;14.04
61086;BME280;46967;48.876;2.136;2023-07-29T07:40:54;100846.50;;;48.23;13.48
61086;BME280;46967;48.876;2.136;2023-07-29T07:43:20;100841.22;;;48.79;13.35
61086;BME280;46967;48.876;2.136;2023-07-29T07:45:45;100841.00;;;49.50;12.93
61086;BME280;46967;48.876;2.136;2023-07-29T07:48:10;100840.38;;;49.67;12.86
61086;BME280;46967;48.876;2.136;2023-07-29T07:50:38;100853.63;;;50.15;12.42
61086;BME280;46967;48.876;2.136;2023-07-29T07:53:03;100847.41;;;50.24;12.03
61086;BME280;46967;48.876;2.136;2023-07-29T07:55:29;100849.66;;;49.85;12.37
61086;BME280;46967;48.876;2.136;2023-07-29T07:57:54;100855.53;;;50.74;11.92
61086;BME280;46967;48.876;2.136;2023-07-29T08:00:20;100853.72;;;50.69;11.82
61086;BME280;46967;48.876;2.136;2023-07-29T08:02:46;100842.44;;;50.34;12.28
61086;BME280;46967;48.876;2.136;2023-07-29T08:05:11;100844.56;;;50.15;12.30
61086;BME280;46967;48.876;2.136;2023-07-29T08:07:36;100856.28;;;50.20;12.30
61086;BME280;46967;48.876;2.136;2023-07-29T08:10:02;100851.09;;;50.42;11.94
61086;BME280;46967;48.876;2.136;2023-07-29T08:12:27;100857.94;;;50.67;12.12
61086;BME280;46967;48.876;2.136;2023-07-29T08:14:56;100859.13;;;49.09;13.05
61086;BME280;46967;48.876;2.136;2023-07-29T08:17:21;100858.09;;;49.05;13.17
61086;BME280;46967;48.876;2.136;2023-07-29T08:19:46;100845.03;;;50.31;12.01
61086;BME280;46967;48.876;2.136;2023-07-29T08:22:12;100854.06;;;49.58;12.78
61086;BME280;46967;48.876;2.136;2023-07-29T08:24:37;100851.66;;;48.96;13.00
61086;BME280;46967;48.876;2.136;2023-07-29T08:27:02;100847.47;;;49.82;12.75
61086;BME280;46967;48.876;2.136;2023-07-29T08:29:28;100849.78;;;49.52;12.63
61086;BME280;46967;48.876;2.136;2023-07-29T08:31:53;100849.97;;;50.06;12.06
61086;BME280;46967;48.876;2.136;2023-07-29T08:34:20;100845.03;;;49.80;12.15
61086;BME280;46967;48.876;2.136;2023-07-29T08:36:45;100840.34;;;48.51;13.20
61086;BME280;46967;48.876;2.136;2023-07-29T08:39:11;100839.88;;;49.65;12.52
61086;BME280;46967;48.876;2.136;2023-07-29T08:41:51;100846.16;;;51.06;11.72
61086;BME280;46967;48.876;2.136;2023-07-29T08:44:22;100843.06;;;50.31;11.90
61086;BME280;46967;48.876;2.136;2023-07-29T08:46:49;100834.28;;;51.06;11.57
61086;BME280;46967;48.876;2.136;2023-07-29T08:49:15;100830.50;;;50.93;11.75
61086;BME280;46967;48.876;2.136;2023-07-29T08:51:44;100840.00;;;51.09;11.58
61086;BME280;46967;48.876;2.136;2023-07-29T08:54:10;100833.22;;;50.62;12.12
61086;BME280;46967;48.876;2.136;2023-07-29T08:56:36;100827.84;;;50.56;11.71
61086;BME280;46967;48.876;2.136;2023-07-29T08:59:02;100828.84;;;50.38;11.77
61086;BME280;46967;48.876;2.136;2023-07-29T09:01:29;100821.47;;;51.19;11.63
61086;BME280;46967;48.876;2.136;2023-07-29T09:03:56;100816.81;;;50.34;12.28
61086;BME280;46967;48.876;2.136;2023-07-29T09:06:21;100828.66;;;50.88;11.82
61086;BME280;46967;48.876;2.136;2023-07-29T09:08:49;100822.16;;;52.08;10.92
61086;BME280;46967;48.876;2.136;2023-07-29T09:11:16;100831.56;;;51.90;11.09
61086;BME280;46967;48.876;2.136;2023-07-29T09:13:42;100818.41;;;51.95;10.84
61086;BME280;46967;48.876;2.136;2023-07-29T09:16:09;100822.47;;;51.98;11.35
61086;BME280;46967;48.876;2.136;2023-07-29T09:18:34;100805.53;;;51.07;11.21
61086;BME280;46967;48.876;2.136;2023-07-29T09:21:00;100812.94;;;51.29;11.47
61086;BME280;46967;48.876;2.136;2023-07-29T09:23:38;100809.44;;;51.90;11.20
61086;BME280;46967;48.876;2.136;2023-07-29T09:26:04;100805.84;;;51.05;11.38
61086;BME280;46967;48.876;2.136;2023-07-29T09:28:37;100806.03;;;52.19;10.84
61086;BME280;46967;48.876;2.136;2023-07-29T09:31:03;100804.53;;;51.03;11.72
61086;BME280;46967;48.876;2.136;2023-07-29T09:33:32;100804.75;;;52.08;11.08
61086;BME280;46967;48.876;2.136;2023-07-29T09:36:00;100812.38;;;52.20;10.68
61086;BME280;46967;48.876;2.136;2023-07-29T09:38:28;100815.59;;;52.22;10.93
61086;BME280;46967;48.876;2.136;2023-07-29T09:40:57;100820.09;;;51.39;11.12
61086;BME280;46967;48.876;2.136;2023-07-29T09:43:30;100825.66;;;51.56;11.12
61086;BME280;46967;48.876;2.136;2023-07-29T09:45:59;100820.97;;;51.92;11.13
61086;BME280;46967;48.876;2.136;2023-07-29T09:48:26;100820.81;;;51.71;11.42
61086;BME280;46967;48.876;2.136;2023-07-29T09:50:51;100819.84;;;51.75;11.10
61086;BME280;46967;48.876;2.136;2023-07-29T09:53:17;100827.75;;;51.33;11.39
61086;BME280;46967;48.876;2.136;2023-07-29T09:55:47;100823.03;;;51.60;11.16
61086;BME280;46967;48.876;2.136;2023-07-29T09:58:26;100814.47;;;51.79;11.24
61086;BME280;46967;48.876;2.136;2023-07-29T10:00:52;100817.06;;;51.75;11.14
61086;BME280;46967;48.876;2.136;2023-07-29T10:03:18;100810.91;;;51.78;10.88
61086;BME280;46967;48.876;2.136;2023-07-29T10:05:46;100815.63;;;51.20;11.49
61086;BME280;46967;48.876;2.136;2023-07-29T10:08:12;100806.63;;;51.46;11.21
61086;BME280;46967;48.876;2.136;2023-07-29T10:10:45;100809.78;;;51.62;11.15
61086;BME280;46967;48.876;2.136;2023-07-29T10:13:12;100814.47;;;50.50;12.06
61086;BME280;46967;48.876;2.136;2023-07-29T10:15:37;100801.47;;;51.62;11.18
61086;BME280;46967;48.876;2.136;2023-07-29T10:18:03;100806.31;;;51.56;11.06
61086;BME280;46967;48.876;2.136;2023-07-29T10:20:33;100810.72;;;51.84;11.14
61086;BME280;46967;48.876;2.136;2023-07-29T10:23:01;100807.66;;;51.94;10.96
61086;BME280;46967;48.876;2.136;2023-07-29T10:25:43;100810.09;;;52.13;11.28
61086;BME280;46967;48.876;2.136;2023-07-29T10:28:12;100806.50;;;51.86;11.05
61086;BME280;46967;48.876;2.136;2023-07-29T10:30:38;100805.66;;;51.59;11.15
61086;BME280;46967;48.876;2.136;2023-07-29T10:33:04;100806.03;;;51.84;11.11
61086;BME280;46967;48.876;2.136;2023-07-29T10:35:32;100808.63;;;52.15;10.92
61086;BME280;46967;48.876;2.136;2023-07-29T10:37:59;100814.81;;;52.12;11.00
61086;BME280;46967;48.876;2.136;2023-07-29T10:40:24;100814.81;;;52.21;11.08
61086;BME280;46967;48.876;2.136;2023-07-29T10:43:12;100815.59;;;52.22;10.99
61086;BME280;46967;48.876;2.136;2023-07-29T10:45:41;100799.84;;;52.31;11.26
61086;BME280;46967;48.876;2.136;2023-07-29T10:48:10;100801.41;;;52.49;10.84
61086;BME280;46967;48.876;2.136;2023-07-29T10:50:35;100805.19;;;52.36;11.14
61086;BME280;46967;48.876;2.136;2023-07-29T10:53:01;100803.03;;;51.45;11.35
61086;BME280;46967;48.876;2.136;2023-07-29T10:55:34;100805.44;;;50.58;12.07
61086;BME280;46967;48.876;2.136;2023-07-29T10:58:06;100802.47;;;52.10;11.15
61086;BME280;46967;48.876;2.136;2023-07-29T11:00:32;100793.09;;;52.67;11.09
61086;BME280;46967;48.876;2.136;2023-07-29T11:03:05;100795.94;;;52.14;11.13
61086;BME280;46967;48.876;2.136;2023-07-29T11:05:51;100802.81;;;51.24;11.96
61086;BME280;46967;48.876;2.136;2023-07-29T11:08:26;100794.00;;;52.06;11.05
61086;BME280;46967;48.876;2.136;2023-07-29T11:11:07;100804.25;;;52.06;11.25
61086;BME280;46967;48.876;2.136;2023-07-29T11:13:37;100792.34;;;52.23;11.44
61086;BME280;46967;48.876;2.136;2023-07-29T11:16:03;100800.97;;;52.12;10.98
61086;BME280;46967;48.876;2.136;2023-07-29T11:18:31;100795.94;;;51.79;11.45
61086;BME280;46967;48.876;2.136;2023-07-29T11:20:57;100791.38;;;51.57;11.56
61086;BME280;46967;48.876;2.136;2023-07-29T11:23:36;100799.44;;;51.36;11.77
61086;BME280;46967;48.876;2.136;2023-07-29T11:26:03;100791.53;;;52.31;11.24
61086;BME280;46967;48.876;2.136;2023-07-29T11:28:29;100790.16;;;52.55;11.23
61086;BME280;46967;48.876;2.136;2023-07-29T11:30:57;100787.78;;;52.27;11.25
61086;BME280;46967;48.876;2.136;2023-07-29T11:33:25;100788.44;;;52.24;11.33
61086;BME280;46967;48.876;2.136;2023-07-29T11:35:51;100783.94;;;52.02;11.01
61086;BME280;46967;48.876;2.136;2023-07-29T11:38:18;100787.97;;;51.69;11.96
61086;BME280;46967;48.876;2.136;2023-07-29T11:41:02;100790.19;;;51.32;11.75
61086;BME280;46967;48.876;2.136;2023-07-29T11:43:35;100777.97;;;53.24;10.56
61086;BME280;46967;48.876;2.136;2023-07-29T11:46:01;100778.66;;;51.39;11.95
61086;BME280;46967;48.876;2.136;2023-07-29T11:48:33;100765.38;;;51.67;11.57
61086;BME280;46967;48.876;2.136;2023-07-29T11:50:59;100766.56;;;52.48;11.29
61086;BME280;46967;48.876;2.136;2023-07-29T11:53:29;100782.88;;;54.24;10.33
61086;BME280;46967;48.876;2.136;2023-07-29T11:55:55;100778.84;;;54.79;10.08
61086;BME280;46967;48.876;2.136;2023-07-29T11:58:21;100775.34;;;55.19;10.04
61086;BME280;46967;48.876;2.136;2023-07-29T12:00:46;100781.66;;;54.34;10.21
61086;BME280;46967;48.876;2.136;2023-07-29T12:03:12;100778.31;;;53.22;10.95
61086;BME280;46967;48.876;2.136;2023-07-29T12:05:38;100771.91;;;54.86;10.27
61086;BME280;46967;48.876;2.136;2023-07-29T12:08:03;100767.91;;;55.36;9.78
61086;BME280;46967;48.876;2.136;2023-07-29T12:10:29;100763.81;;;54.68;9.97
61086;BME280;46967;48.876;2.136;2023-07-29T12:12:55;100762.59;;;55.71;9.80
61086;BME280;46967;48.876;2.136;2023-07-29T12:15:25;100759.03;;;55.87;9.37
61086;BME280;46967;48.876;2.136;2023-07-29T12:17:53;100757.00;;;55.84;9.60
61086;BME280;46967;48.876;2.136;2023-07-29T12:20:20;100759.75;;;55.55;9.49
61086;BME280;46967;48.876;2.136;2023-07-29T12:22:51;100752.44;;;55.63;9.58
61086;BME280;46967;48.876;2.136;2023-07-29T12:25:17;100746.25;;;55.42;9.30
61086;BME280;46967;48.876;2.136;2023-07-29T12:27:43;100745.69;;;54.37;10.06
61086;BME280;46967;48.876;2.136;2023-07-29T12:30:09;100743.03;;;54.53;10.19
61086;BME280;46967;48.876;2.136;2023-07-29T12:32:43;100737.34;;;55.36;9.22
61086;BME280;46967;48.876;2.136;2023-07-29T12:35:12;100744.41;;;55.33;9.54
61086;BME280;46967;48.876;2.136;2023-07-29T12:37:37;100734.56;;;54.12;9.94
61086;BME280;46967;48.876;2.136;2023-07-29T12:40:04;100734.16;;;55.09;10.15
61086;BME280;46967;48.876;2.136;2023-07-29T12:42:30;100746.09;;;54.97;10.63
61086;BME280;46967;48.876;2.136;2023-07-29T12:44:55;100739.03;;;52.99;11.23
61086;BME280;46967;48.876;2.136;2023-07-29T12:47:21;100731.84;;;53.49;10.84
61086;BME280;46967;48.876;2.136;2023-07-29T12:49:46;100732.16;;;54.36;10.54
61086;BME280;46967;48.876;2.136;2023-07-29T12:52:11;100729.13;;;55.40;9.88
61086;BME280;46967;48.876;2.136;2023-07-29T12:54:37;100721.44;;;56.21;9.77
61086;BME280;46967;48.876;2.136;2023-07-29T12:57:02;100722.66;;;55.64;9.45